Time;durP1;ratioP1;P1;durP2;ratioP2;P2;SDS_P1;SDS_P2;PMS_P1;PMS_P2;Temp;Humidity;BMP_temperature;BMP_pressure;BME280_temperature;BME280_humidity;BME280_pressure;Samples;Min_cycle;Max_cycle;Signal;HPM_P1;HPM_P2
2023/03/12 00:01:17;;;;;;;;;;;10.60;99.90;;;;;;6210501;23;19900;-84
2023/03/12 00:03:42;;;;;;;;;;;10.60;99.90;;;;;;6210328;23;19900;-84
2023/03/12 00:06:08;;;;;;;;;;;10.60;99.90;;;;;;6211020;23;19938;-82
2023/03/12 00:08:34;;;;;;;;;;;10.60;99.90;;;;;;6210919;23;19990;-84
2023/03/12 00:10:59;;;;;;;;;;;10.60;99.90;;;;;;6212034;23;19915;-82
2023/03/12 00:13:25;;;;;;;;;;;10.60;99.90;;;;;;6211016;23;19900;-82
2023/03/12 00:15:52;;;;;;;;;;;10.60;99.90;;;;;;6210022;23;19904;-82
2023/03/12 00:18:17;;;;;;;;;;;10.70;99.90;;;;;;6210716;23;19922;-87
2023/03/12 00:20:43;;;;;;;;;;;10.60;99.90;;;;;;6210595;23;20317;-85
2023/03/12 00:23:08;;;;;;;;;;;10.60;99.90;;;;;;6210954;23;19978;-84
2023/03/12 00:25:34;;;;;;;;;;;10.60;99.90;;;;;;6210965;23;19904;-83
2023/03/12 00:28:00;;;;;;;;;;;10.60;99.90;;;;;;6211491;23;19900;-85
2023/03/12 00:30:27;;;;;;;;;;;10.60;99.90;;;;;;6210086;23;19904;-85
2023/03/12 00:32:53;;;;;;;;;;;10.60;99.90;;;;;;6210546;23;20317;-84
2023/03/12 00:35:18;;;;;;;;;;;10.60;99.90;;;;;;6210986;23;19906;-86
2023/03/12 00:37:44;;;;;;;;;;;10.60;99.90;;;;;;6211050;23;19904;-84
2023/03/12 00:40:10;;;;;;;;;;;10.60;99.90;;;;;;6210776;23;19900;-84
2023/03/12 00:42:35;;;;;;;;;;;10.50;99.90;;;;;;6210838;23;20214;-83
2023/03/12 00:45:01;;;;;;;;;;;10.60;99.90;;;;;;6211255;23;19899;-83
2023/03/12 00:47:26;;;;;;;;;;;10.60;99.90;;;;;;6210467;23;19954;-86
2023/03/12 00:49:52;;;;;;;;;;;10.50;99.90;;;;;;6210895;23;20197;-86
2023/03/12 00:52:17;;;;;;;;;;;10.50;99.90;;;;;;6210604;23;19907;-85
2023/03/12 00:54:43;;;;;;;;;;;10.50;99.90;;;;;;6210854;23;19932;-87
2023/03/12 00:57:08;;;;;;;;;;;10.60;99.90;;;;;;6210787;23;20321;-85
2023/03/12 00:59:34;;;;;;;;;;;10.60;99.90;;;;;;6210054;23;19951;-83
2023/03/12 01:01:59;;;;;;;;;;;10.60;99.90;;;;;;6211500;23;19900;-84
2023/03/12 01:04:25;;;;;;;;;;;10.60;99.90;;;;;;6210543;23;19899;-84
2023/03/12 01:06:51;;;;;;;;;;;10.50;99.90;;;;;;6210811;23;19900;-84
2023/03/12 01:09:18;;;;;;;;;;;10.50;99.90;;;;;;6210763;23;19946;-83
2023/03/12 01:11:43;;;;;;;;;;;10.40;99.90;;;;;;6210637;23;19986;-84
2023/03/12 01:14:09;;;;;;;;;;;10.30;99.90;;;;;;6210673;23;19938;-85
2023/03/12 01:16:34;;;;;;;;;;;10.30;99.90;;;;;;6210597;23;19899;-82
2023/03/12 01:19:01;;;;;;;;;;;10.30;99.90;;;;;;6211223;23;20258;-84
2023/03/12 01:21:26;;;;;;;;;;;10.30;99.90;;;;;;6210728;23;20394;-83
2023/03/12 01:23:52;;;;;;;;;;;10.20;99.90;;;;;;6210705;23;19900;-82
2023/03/12 01:26:17;;;;;;;;;;;10.20;99.90;;;;;;6210658;23;19907;-84
2023/03/12 01:28:43;;;;;;;;;;;10.20;99.90;;;;;;6210514;23;19935;-85
2023/03/12 01:31:10;;;;;;;;;;;10.20;99.90;;;;;;6211005;23;19910;-84
2023/03/12 01:33:35;;;;;;;;;;;10.20;99.90;;;;;;6212452;23;19904;-83
2023/03/12 01:36:01;;;;;;;;;;;10.20;99.90;;;;;;6213683;23;19969;-85
2023/03/12 01:38:27;;;;;;;;;;;10.20;99.90;;;;;;6212253;23;19899;-84
2023/03/12 01:40:53;;;;;;;;;;;10.10;99.90;;;;;;6212387;23;19927;-83
2023/03/12 01:43:27;;;;;;;;;;;10.10;99.90;;;;;;6212253;23;19900;-84
2023/03/12 01:46:11;;;;;;;;;;;10.00;99.90;;;;;;6211606;23;19900;-85
2023/03/12 01:48:41;;;;;;;;;;;10.00;99.90;;;;;;6212273;23;19907;-84
2023/03/12 01:51:08;;;;;;;;;;;9.90;99.90;;;;;;6212182;23;19954;-83
2023/03/12 01:53:34;;;;;;;;;;;9.80;99.90;;;;;;6213421;23;19949;-82
2023/03/12 01:56:00;;;;;;;;;;;9.80;99.90;;;;;;6212804;23;19986;-86
2023/03/12 01:58:26;;;;;;;;;;;9.80;99.90;;;;;;6212571;23;19904;-84
2023/03/12 02:00:52;;;;;;;;;;;9.70;99.90;;;;;;6213021;23;19900;-83
2023/03/12 02:03:17;;;;;;;;;;;9.70;99.90;;;;;;6211897;23;19938;-85
2023/03/12 02:05:46;;;;;;;;;;;9.70;99.90;;;;;;6211606;23;19906;-84
2023/03/12 02:08:12;;;;;;;;;;;9.60;99.90;;;;;;6212065;23;19900;-85
2023/03/12 02:10:38;;;;;;;;;;;9.60;99.90;;;;;;6212024;23;20018;-83
2023/03/12 02:13:03;;;;;;;;;;;9.60;99.90;;;;;;6213332;23;20322;-84
2023/03/12 02:15:29;;;;;;;;;;;9.50;99.90;;;;;;6211989;23;20295;-82
2023/03/12 02:17:54;;;;;;;;;;;9.40;99.90;;;;;;6210964;23;19954;-82
2023/03/12 02:20:26;;;;;;;;;;;9.40;99.90;;;;;;6211596;23;19908;-84
2023/03/12 02:22:57;;;;;;;;;;;9.40;99.90;;;;;;6211952;23;19900;-84
2023/03/12 02:25:29;;;;;;;;;;;9.30;99.90;;;;;;6211924;23;19906;-84
2023/03/12 02:27:59;;;;;;;;;;;9.30;99.90;;;;;;6212083;23;20333;-82
2023/03/12 02:30:25;;;;;;;;;;;9.20;99.90;;;;;;6211941;23;20276;-84
2023/03/12 02:32:51;;;;;;;;;;;9.20;99.90;;;;;;6211119;23;19908;-84
2023/03/12 02:35:17;;;;;;;;;;;9.10;99.90;;;;;;6211477;23;20284;-82
2023/03/12 02:37:46;;;;;;;;;;;9.00;99.90;;;;;;6211531;23;19904;-84
2023/03/12 02:40:20;;;;;;;;;;;9.00;99.90;;;;;;6211952;23;19900;-83
2023/03/12 02:42:46;;;;;;;;;;;9.00;99.90;;;;;;6211427;23;19954;-84
2023/03/12 02:45:11;;;;;;;;;;;9.00;99.90;;;;;;6211528;23;19907;-82
2023/03/12 02:47:37;;;;;;;;;;;8.90;99.90;;;;;;6212354;23;19982;-83
2023/03/12 02:50:03;;;;;;;;;;;8.90;99.90;;;;;;6211676;23;19906;-84
2023/03/12 02:52:34;;;;;;;;;;;9.00;99.90;;;;;;6211371;23;20488;-82
2023/03/12 02:55:00;;;;;;;;;;;9.00;99.90;;;;;;6211653;23;19903;-83
2023/03/12 02:57:25;;;;;;;;;;;9.00;99.90;;;;;;6211865;23;19946;-85
2023/03/12 02:59:50;;;;;;;;;;;9.00;99.90;;;;;;6211735;23;19908;-83
2023/03/12 03:02:16;;;;;;;;;;;9.00;99.90;;;;;;6211028;23;19900;-81
2023/03/12 03:04:41;;;;;;;;;;;9.00;99.90;;;;;;6211266;23;19907;-86
2023/03/12 03:07:07;;;;;;;;;;;9.00;99.90;;;;;;6212563;23;20325;-84
2023/03/12 03:09:32;;;;;;;;;;;9.00;99.90;;;;;;6211714;23;19946;-84
2023/03/12 03:11:58;;;;;;;;;;;9.20;99.90;;;;;;6211590;23;19915;-83
2023/03/12 03:14:25;;;;;;;;;;;9.10;99.90;;;;;;6210788;23;19904;-85
2023/03/12 03:16:50;;;;;;;;;;;9.00;99.90;;;;;;6211330;23;19907;-84
2023/03/12 03:19:16;;;;;;;;;;;8.90;99.90;;;;;;6211282;23;19907;-86
2023/03/12 03:21:42;;;;;;;;;;;9.00;99.90;;;;;;6211232;23;19970;-84
2023/03/12 03:24:08;;;;;;;;;;;8.90;99.90;;;;;;6212012;23;19929;-86
2023/03/12 03:26:33;;;;;;;;;;;9.10;99.90;;;;;;6210945;23;19931;-85
2023/03/12 03:28:59;;;;;;;;;;;8.90;99.90;;;;;;6211576;23;20400;-86
2023/03/12 03:31:24;;;;;;;;;;;9.10;99.90;;;;;;6211190;23;20240;-85
2023/03/12 03:33:50;;;;;;;;;;;9.10;99.90;;;;;;6210915;23;19900;-83
2023/03/12 03:36:16;;;;;;;;;;;8.90;99.90;;;;;;6211263;23;19934;-83
2023/03/12 03:38:45;;;;;;;;;;;8.90;99.90;;;;;;6211183;23;19927;-82
2023/03/12 03:41:11;;;;;;;;;;;8.90;99.90;;;;;;6211579;23;20305;-82
2023/03/12 03:43:36;;;;;;;;;;;8.90;99.90;;;;;;6212178;23;19931;-84
2023/03/12 03:46:03;;;;;;;;;;;9.10;99.90;;;;;;6211199;23;19991;-84
2023/03/12 03:48:29;;;;;;;;;;;8.90;99.90;;;;;;6211132;23;19900;-83
2023/03/12 03:50:58;;;;;;;;;;;8.90;99.90;;;;;;6211286;23;19908;-84
2023/03/12 03:53:23;;;;;;;;;;;8.80;99.90;;;;;;6210115;23;19904;-83
2023/03/12 03:55:49;;;;;;;;;;;8.80;99.90;;;;;;6211282;23;19970;-82
2023/03/12 03:58:15;;;;;;;;;;;8.90;99.90;;;;;;6210444;23;19904;-84
2023/03/12 04:00:43;;;;;;;;;;;8.80;99.90;;;;;;6212143;23;19900;-83
2023/03/12 04:03:08;;;;;;;;;;;8.80;99.90;;;;;;6184995;23;20283;-82
2023/03/12 04:05:34;;;;;;;;;;;8.80;99.90;;;;;;6210296;23;19903;-84
2023/03/12 04:08:02;;;;;;;;;;;8.80;99.90;;;;;;6210551;23;19942;-86
2023/03/12 04:10:28;;;;;;;;;;;8.80;99.90;;;;;;6209629;23;20225;-84
2023/03/12 04:12:54;;;;;;;;;;;9.00;99.90;;;;;;6210728;23;19982;-86
2023/03/12 04:15:20;;;;;;;;;;;8.80;99.90;;;;;;6210245;23;19935;-85
2023/03/12 04:17:45;;;;;;;;;;;8.80;99.90;;;;;;6210961;23;20277;-85
2023/03/12 04:20:11;;;;;;;;;;;8.80;99.90;;;;;;6211360;23;19954;-83
2023/03/12 04:22:36;;;;;;;;;;;8.70;99.90;;;;;;6210979;23;19899;-85
2023/03/12 04:25:02;;;;;;;;;;;8.60;99.90;;;;;;6210338;23;20361;-84
2023/03/12 04:27:28;;;;;;;;;;;8.60;99.90;;;;;;6210553;23;20276;-86
2023/03/12 04:29:53;;;;;;;;;;;8.60;99.90;;;;;;6210450;23;19900;-84
2023/03/12 04:32:19;;;;;;;;;;;8.60;99.90;;;;;;6210218;23;19908;-85
2023/03/12 04:34:44;;;;;;;;;;;8.60;99.90;;;;;;6211495;23;19908;-82
2023/03/12 04:37:12;;;;;;;;;;;8.80;99.90;;;;;;6211512;23;20030;-84
2023/03/12 04:39:38;;;;;;;;;;;8.60;99.90;;;;;;6211064;23;19907;-84
2023/03/12 04:42:04;;;;;;;;;;;8.60;99.90;;;;;;6210496;23;20743;-82
2023/03/12 04:44:29;;;;;;;;;;;8.70;99.90;;;;;;6210634;23;19900;-85
2023/03/12 04:46:55;;;;;;;;;;;8.60;99.90;;;;;;6211286;23;19946;-84
2023/03/12 04:49:21;;;;;;;;;;;8.60;99.90;;;;;;6210729;23;20383;-82
2023/03/12 04:51:46;;;;;;;;;;;8.60;99.90;;;;;;6211222;23;19960;-84
2023/03/12 04:54:12;;;;;;;;;;;8.60;99.90;;;;;;6185258;23;20326;-84
2023/03/12 04:56:37;;;;;;;;;;;8.80;99.90;;;;;;6210960;23;19915;-83
2023/03/12 04:59:03;;;;;;;;;;;8.50;99.90;;;;;;6210664;23;19900;-85
2023/03/12 05:01:30;;;;;;;;;;;8.90;99.90;;;;;;6210825;23;19982;-85
2023/03/12 05:03:56;;;;;;;;;;;8.30;99.90;;;;;;6210636;23;19901;-86
2023/03/12 05:06:22;;;;;;;;;;;8.20;99.90;;;;;;6212363;23;20244;-83
2023/03/12 05:08:47;;;;;;;;;;;8.40;99.90;;;;;;6212474;23;20225;-84
2023/03/12 05:11:13;;;;;;;;;;;8.30;99.90;;;;;;6212001;23;19908;-82
2023/03/12 05:13:39;;;;;;;;;;;8.30;99.90;;;;;;6212493;23;19906;-83
2023/03/12 05:16:05;;;;;;;;;;;8.30;99.90;;;;;;6211920;23;20292;-83
2023/03/12 05:18:30;;;;;;;;;;;8.30;99.90;;;;;;6212584;23;19904;-82
2023/03/12 05:20:57;;;;;;;;;;;8.30;99.90;;;;;;6212510;23;19908;-83
2023/03/12 05:23:22;;;;;;;;;;;8.30;99.90;;;;;;6212325;23;20317;-83
2023/03/12 05:25:47;;;;;;;;;;;8.30;99.90;;;;;;6212248;23;19911;-84
2023/03/12 05:28:13;;;;;;;;;;;8.40;99.90;;;;;;6213409;23;19899;-83
2023/03/12 05:30:38;;;;;;;;;;;8.40;99.90;;;;;;6212119;23;19904;-83
2023/03/12 05:33:04;;;;;;;;;;;8.40;99.90;;;;;;6212521;23;19908;-83
2023/03/12 05:35:29;;;;;;;;;;;8.40;99.90;;;;;;6212364;23;19902;-84
2023/03/12 05:37:55;;;;;;;;;;;8.70;99.90;;;;;;6212084;23;19907;-85
2023/03/12 05:40:20;;;;;;;;;;;7.90;99.90;;;;;;6211109;23;20281;-83
2023/03/12 05:42:46;;;;;;;;;;;8.10;99.90;;;;;;6213252;23;19900;-83
2023/03/12 05:45:12;;;;;;;;;;;8.30;99.90;;;;;;6213222;23;19993;-86
2023/03/12 05:47:37;;;;;;;;;;;8.50;99.90;;;;;;6212642;23;19903;-84
2023/03/12 05:50:03;;;;;;;;;;;8.20;99.90;;;;;;6212271;23;19907;-83
2023/03/12 05:52:28;;;;;;;;;;;8.20;99.90;;;;;;6212200;23;20252;-84
2023/03/12 05:54:54;;;;;;;;;;;8.40;99.90;;;;;;6212622;23;19954;-84
2023/03/12 05:57:19;;;;;;;;;;;8.30;99.90;;;;;;6212090;23;20241;-84
2023/03/12 05:59:45;;;;;;;;;;;8.40;99.90;;;;;;6213147;23;20329;-83
2023/03/12 06:02:10;;;;;;;;;;;8.40;99.90;;;;;;6211966;23;20030;-84
2023/03/12 06:04:36;;;;;;;;;;;8.40;99.90;;;;;;6212047;23;19900;-83
2023/03/12 06:07:01;;;;;;;;;;;8.50;99.90;;;;;;6211886;23;19903;-84
2023/03/12 06:09:27;;;;;;;;;;;8.30;99.90;;;;;;6211842;23;19930;-83
2023/03/12 06:11:52;;;;;;;;;;;8.30;99.90;;;;;;6211747;23;19908;-83
2023/03/12 06:14:18;;;;;;;;;;;8.40;99.90;;;;;;6212459;23;19987;-83
2023/03/12 06:16:43;;;;;;;;;;;8.20;99.90;;;;;;6211117;23;19900;-81
2023/03/12 06:19:12;;;;;;;;;;;8.30;99.90;;;;;;6212065;23;20132;-86
2023/03/12 06:21:38;;;;;;;;;;;8.20;99.90;;;;;;6211474;23;19947;-84
2023/03/12 06:24:04;;;;;;;;;;;8.30;99.90;;;;;;6211680;23;19900;-83
2023/03/12 06:26:30;;;;;;;;;;;8.30;99.90;;;;;;6211281;23;20245;-82
2023/03/12 06:28:55;;;;;;;;;;;8.30;99.90;;;;;;6211766;23;19907;-80
2023/03/12 06:31:21;;;;;;;;;;;8.30;99.90;;;;;;6211159;23;20325;-82
2023/03/12 06:33:47;;;;;;;;;;;8.40;99.90;;;;;;6212533;23;19925;-83
2023/03/12 06:36:12;;;;;;;;;;;8.00;99.90;;;;;;6210817;23;19908;-83
2023/03/12 06:38:38;;;;;;;;;;;8.20;99.90;;;;;;6211381;23;19931;-82
2023/03/12 06:41:09;;;;;;;;;;;8.20;99.90;;;;;;6210375;23;19975;-86
2023/03/12 06:43:35;;;;;;;;;;;8.10;99.90;;;;;;6211707;23;19906;-88
2023/03/12 06:46:01;;;;;;;;;;;8.10;99.90;;;;;;6211950;23;19900;-88
2023/03/12 06:48:28;;;;;;;;;;;8.80;99.90;;;;;;6211694;23;19925;-86
2023/03/12 06:50:54;;;;;;;;;;;8.40;99.90;;;;;;6211737;23;19899;-87
2023/03/12 06:53:19;;;;;;;;;;;8.00;99.90;;;;;;6212483;23;20387;-86
2023/03/12 06:55:46;;;;;;;;;;;9.00;99.90;;;;;;6211347;23;19903;-87
2023/03/12 06:58:12;;;;;;;;;;;8.10;99.90;;;;;;6210373;23;20190;-86
2023/03/12 07:00:38;;;;;;;;;;;8.10;99.90;;;;;;6210840;23;19950;-87
2023/03/12 07:03:03;;;;;;;;;;;8.60;99.90;;;;;;6211786;23;20264;-86
2023/03/12 07:05:29;;;;;;;;;;;8.20;99.90;;;;;;6211765;23;19907;-86
2023/03/12 07:07:55;;;;;;;;;;;8.50;99.90;;;;;;6211567;23;19958;-86
2023/03/12 07:10:20;;;;;;;;;;;9.50;99.90;;;;;;6211416;23;19900;-87
2023/03/12 07:12:47;;;;;;;;;;;9.10;99.90;;;;;;6211693;23;19947;-88
2023/03/12 07:15:13;;;;;;;;;;;8.90;99.90;;;;;;6210231;23;19904;-87
2023/03/12 07:17:39;;;;;;;;;;;8.30;99.90;;;;;;6204917;23;19900;-86
2023/03/12 07:20:05;;;;;;;;;;;8.20;99.90;;;;;;6208809;23;20297;-85
2023/03/12 07:22:30;;;;;;;;;;;8.30;99.90;;;;;;6209481;23;19900;-85
2023/03/12 07:24:56;;;;;;;;;;;8.30;99.90;;;;;;6210528;23;19900;-87
2023/03/12 07:27:21;;;;;;;;;;;8.60;99.90;;;;;;6210704;23;19962;-86
2023/03/12 07:29:47;;;;;;;;;;;8.30;99.90;;;;;;6211834;23;19975;-88
2023/03/12 07:32:12;;;;;;;;;;;9.20;99.90;;;;;;6210723;23;19914;-88
2023/03/12 07:34:38;;;;;;;;;;;8.50;99.90;;;;;;6211671;23;19906;-87
2023/03/12 07:37:04;;;;;;;;;;;8.50;99.90;;;;;;6185247;23;19926;-87
2023/03/12 07:39:29;;;;;;;;;;;8.70;99.90;;;;;;6189161;23;19958;-88
2023/03/12 07:41:55;;;;;;;;;;;8.90;99.90;;;;;;6213640;23;19986;-87
2023/03/12 07:44:20;;;;;;;;;;;8.80;99.90;;;;;;6219095;23;19907;-87
2023/03/12 07:46:46;;;;;;;;;;;8.70;99.90;;;;;;6216868;23;19907;-86
2023/03/12 07:49:11;;;;;;;;;;;9.10;99.90;;;;;;6211347;23;19900;-87
2023/03/12 07:51:37;;;;;;;;;;;8.90;99.90;;;;;;6210877;23;19912;-86
2023/03/12 07:54:02;;;;;;;;;;;9.10;99.90;;;;;;6210646;23;19986;-87
2023/03/12 07:56:28;;;;;;;;;;;9.00;99.90;;;;;;6210590;23;19900;-86
2023/03/12 07:58:53;;;;;;;;;;;9.70;99.90;;;;;;6209879;23;20284;-86
2023/03/12 08:01:19;;;;;;;;;;;9.30;99.90;;;;;;6211574;23;19987;-87
2023/03/12 08:03:45;;;;;;;;;;;9.30;99.90;;;;;;6210730;23;19904;-88
2023/03/12 08:06:10;;;;;;;;;;;9.40;99.90;;;;;;6210511;23;20206;-86
2023/03/12 08:08:40;;;;;;;;;;;9.30;99.90;;;;;;6183352;23;19942;-85
2023/03/12 08:11:06;;;;;;;;;;;9.60;99.90;;;;;;6210266;23;19909;-86
2023/03/12 08:13:32;;;;;;;;;;;9.70;99.90;;;;;;6210367;23;19904;-84
2023/03/12 08:15:57;;;;;;;;;;;9.80;99.90;;;;;;6209691;23;19946;-86
2023/03/12 08:18:23;;;;;;;;;;;9.80;99.90;;;;;;6210634;23;20445;-84
2023/03/12 08:20:50;;;;;;;;;;;9.90;99.90;;;;;;6210232;23;20245;-87
2023/03/12 08:23:16;;;;;;;;;;;10.00;99.90;;;;;;6211149;23;19900;-85
2023/03/12 08:25:43;;;;;;;;;;;10.00;99.90;;;;;;6209076;23;19910;-87
2023/03/12 08:28:09;;;;;;;;;;;10.00;99.90;;;;;;6210448;23;19982;-89
2023/03/12 08:30:34;;;;;;;;;;;10.10;99.90;;;;;;6210407;23;19907;-86
2023/03/12 08:33:00;;;;;;;;;;;10.10;99.90;;;;;;6210031;23;19990;-85
2023/03/12 08:35:25;;;;;;;;;;;10.10;99.90;;;;;;6209834;23;20325;-85
2023/03/12 08:37:51;;;;;;;;;;;10.20;99.90;;;;;;6210240;23;19907;-84
2023/03/12 08:40:17;;;;;;;;;;;10.30;99.90;;;;;;6208509;23;20357;-85
2023/03/12 08:42:43;;;;;;;;;;;10.30;99.90;;;;;;6210120;23;19906;-85
2023/03/12 08:45:10;;;;;;;;;;;10.40;99.90;;;;;;6210074;23;19978;-86
2023/03/12 08:47:36;;;;;;;;;;;10.40;99.90;;;;;;6210857;23;19911;-86
2023/03/12 08:50:01;;;;;;;;;;;10.50;99.90;;;;;;6211168;23;19900;-86
2023/03/12 08:52:27;;;;;;;;;;;10.60;99.90;;;;;;6211445;23;19940;-86
2023/03/12 08:54:53;;;;;;;;;;;10.70;99.90;;;;;;6211049;23;19958;-86
2023/03/12 08:57:18;;;;;;;;;;;10.80;99.90;;;;;;6212098;23;19923;-85
2023/03/12 08:59:44;;;;;;;;;;;10.80;99.90;;;;;;6183713;23;19900;-87
2023/03/12 09:02:12;;;;;;;;;;;10.90;99.90;;;;;;6210791;23;19900;-87
2023/03/12 09:04:38;;;;;;;;;;;11.00;99.90;;;;;;6210478;23;20325;-87
2023/03/12 09:07:04;;;;;;;;;;;11.10;99.90;;;;;;6210573;23;19907;-88
2023/03/12 09:09:29;;;;;;;;;;;11.20;99.90;;;;;;6210604;23;19935;-88
2023/03/12 09:11:55;;;;;;;;;;;11.20;99.90;;;;;;6210742;23;19923;-87
2023/03/12 09:14:20;;;;;;;;;;;11.20;99.90;;;;;;6211362;23;19899;-89
2023/03/12 09:16:46;;;;;;;;;;;11.20;99.90;;;;;;6184151;23;19954;-85
2023/03/12 09:19:11;;;;;;;;;;;11.30;99.90;;;;;;6210683;23;20412;-87
2023/03/12 09:21:38;;;;;;;;;;;11.40;99.90;;;;;;6210539;23;19955;-87
2023/03/12 09:24:04;;;;;;;;;;;11.50;99.90;;;;;;6210470;23;20248;-87
2023/03/12 09:26:30;;;;;;;;;;;11.70;99.90;;;;;;6184227;23;19900;-87
2023/03/12 09:28:56;;;;;;;;;;;11.80;99.90;;;;;;6210430;23;20243;-86
2023/03/12 09:31:22;;;;;;;;;;;11.70;99.90;;;;;;6211906;23;19907;-87
2023/03/12 09:33:47;;;;;;;;;;;11.70;99.90;;;;;;6211081;23;20343;-86
2023/03/12 09:36:13;;;;;;;;;;;11.70;99.90;;;;;;6210022;23;19904;-88
2023/03/12 09:38:38;;;;;;;;;;;11.80;99.90;;;;;;6210555;23;19954;-90
2023/03/12 09:41:05;;;;;;;;;;;11.90;99.90;;;;;;6210826;23;19900;-88
2023/03/12 09:43:31;;;;;;;;;;;12.00;99.90;;;;;;6210787;23;19900;-87
2023/03/12 09:45:57;;;;;;;;;;;12.00;99.90;;;;;;6210061;23;20333;-86
2023/03/12 09:48:36;;;;;;;;;;;11.80;99.90;;;;;;6210263;23;19900;-86
2023/03/12 09:51:07;;;;;;;;;;;12.00;99.90;;;;;;6210593;23;19904;-86
2023/03/12 09:53:46;;;;;;;;;;;12.10;99.90;;;;;;6212310;23;20409;-86
2023/03/12 09:56:19;;;;;;;;;;;12.10;99.90;;;;;;6212463;23;19979;-88
2023/03/12 09:58:49;;;;;;;;;;;12.10;99.90;;;;;;6212222;23;20190;-85
2023/03/12 10:01:20;;;;;;;;;;;12.10;99.90;;;;;;6211906;23;19904;-85
2023/03/12 10:04:04;;;;;;;;;;;12.30;99.90;;;;;;6211942;23;19908;-83
2023/03/12 10:06:34;;;;;;;;;;;12.40;99.90;;;;;;6212136;23;20321;-87
2023/03/12 10:09:02;;;;;;;;;;;12.60;99.90;;;;;;6212251;23;19946;-85
2023/03/12 10:11:42;;;;;;;;;;;12.70;99.90;;;;;;6212175;23;20313;-90
2023/03/12 10:14:26;;;;;;;;;;;12.80;99.90;;;;;;6211991;23;19904;-86
2023/03/12 10:17:05;;;;;;;;;;;12.80;99.90;;;;;;6212805;23;19945;-86
2023/03/12 10:19:49;;;;;;;;;;;12.90;99.90;;;;;;6210758;23;19914;-87
2023/03/12 10:22:20;;;;;;;;;;;12.90;99.90;;;;;;6211393;23;19994;-84
2023/03/12 10:24:45;;;;;;;;;;;12.80;99.90;;;;;;6212061;23;20381;-84
2023/03/12 10:27:13;;;;;;;;;;;12.70;99.90;;;;;;6211841;23;19926;-86
2023/03/12 10:29:40;;;;;;;;;;;12.80;99.90;;;;;;6211030;23;19900;-85
2023/03/12 10:32:17;;;;;;;;;;;12.90;99.90;;;;;;6213395;23;20014;-85
2023/03/12 10:34:43;;;;;;;;;;;12.90;99.90;;;;;;6213524;23;19954;-86
2023/03/12 10:37:13;;;;;;;;;;;12.90;99.90;;;;;;6215598;23;20434;-86
2023/03/12 10:39:38;;;;;;;;;;;12.90;99.90;;;;;;6212828;23;20312;-87
2023/03/12 10:42:11;;;;;;;;;;;13.00;99.90;;;;;;6212121;23;19927;-85
2023/03/12 10:44:36;;;;;;;;;;;13.10;99.90;;;;;;6210612;23;19978;-85
2023/03/12 10:47:20;;;;;;;;;;;13.20;99.90;;;;;;6211326;23;19938;-86
2023/03/12 10:49:49;;;;;;;;;;;13.20;99.90;;;;;;6211848;23;19904;-86
2023/03/12 10:52:15;;;;;;;;;;;13.40;99.90;;;;;;6211676;23;19950;-86
2023/03/12 10:54:43;;;;;;;;;;;13.50;99.90;;;;;;6211205;23;19900;-86
2023/03/12 10:57:09;;;;;;;;;;;13.60;99.90;;;;;;6211259;23;19906;-84
2023/03/12 10:59:36;;;;;;;;;;;13.60;99.90;;;;;;6211334;23;19900;-84
2023/03/12 11:02:17;;;;;;;;;;;13.60;99.90;;;;;;6211390;23;19950;-89
2023/03/12 11:04:49;;;;;;;;;;;13.80;99.90;;;;;;6211464;23;19900;-85
2023/03/12 11:07:17;;;;;;;;;;;14.10;99.90;;;;;;6211670;23;19907;-86
2023/03/12 11:09:43;;;;;;;;;;;14.20;99.90;;;;;;6211321;23;19899;-87
2023/03/12 11:12:23;;;;;;;;;;;14.30;99.90;;;;;;6211306;23;19914;-86
2023/03/12 11:14:48;;;;;;;;;;;14.30;99.90;;;;;;6211535;23;19904;-87
2023/03/12 11:17:27;;;;;;;;;;;14.10;99.90;;;;;;6211452;23;20321;-87
2023/03/12 11:19:53;;;;;;;;;;;14.00;99.90;;;;;;6211452;23;20244;-85
2023/03/12 11:22:29;;;;;;;;;;;13.90;99.90;;;;;;6211513;23;20201;-87
2023/03/12 11:24:56;;;;;;;;;;;14.00;99.90;;;;;;6211594;23;19907;-86
2023/03/12 11:27:41;;;;;;;;;;;14.10;99.90;;;;;;6211622;23;19900;-85
2023/03/12 11:30:10;;;;;;;;;;;14.10;99.90;;;;;;6211354;23;19899;-85
2023/03/12 11:32:37;;;;;;;;;;;14.30;99.90;;;;;;6210977;23;19912;-85
2023/03/12 11:35:08;;;;;;;;;;;14.40;99.90;;;;;;6211270;23;19906;-85
2023/03/12 11:37:34;;;;;;;;;;;14.50;99.90;;;;;;6211267;23;20237;-87
2023/03/12 11:40:08;;;;;;;;;;;14.40;99.90;;;;;;6212527;23;19900;-86
2023/03/12 11:42:40;;;;;;;;;;;14.40;99.90;;;;;;6211143;23;19974;-85
2023/03/12 11:45:23;;;;;;;;;;;14.30;99.90;;;;;;6211183;23;19908;-86
2023/03/12 11:48:07;;;;;;;;;;;14.30;99.90;;;;;;6211225;23;19900;-86
2023/03/12 11:50:32;;;;;;;;;;;14.20;99.90;;;;;;6211313;23;19946;-86
2023/03/12 11:53:10;;;;;;;;;;;14.20;99.90;;;;;;6212098;23;20295;-86
2023/03/12 11:55:38;;;;;;;;;;;14.20;99.90;;;;;;6211049;23;19979;-88
2023/03/12 11:58:16;;;;;;;;;;;14.20;99.90;;;;;;6183988;23;19907;-89
2023/03/12 12:00:55;;;;;;;;;;;14.30;99.90;;;;;;6211669;23;19899;-88
2023/03/12 12:03:26;;;;;;;;;;;14.50;99.90;;;;;;6211322;23;19957;-88
2023/03/12 12:06:05;;;;;;;;;;;14.70;99.90;;;;;;6211067;23;19908;-88
2023/03/12 12:08:43;;;;;;;;;;;14.70;99.90;;;;;;6212226;23;19922;-87
2023/03/12 12:11:27;;;;;;;;;;;14.60;99.90;;;;;;6211196;23;20325;-87
2023/03/12 12:14:02;;;;;;;;;;;14.60;99.90;;;;;;6210463;23;19907;-89
2023/03/12 12:16:46;;;;;;;;;;;14.60;99.90;;;;;;6211938;23;19900;-87
2023/03/12 12:19:29;;;;;;;;;;;14.70;99.90;;;;;;6210886;23;19915;-87
2023/03/12 12:22:13;;;;;;;;;;;14.60;99.90;;;;;;6210909;23;19900;-88
2023/03/12 12:25:03;;;;;;;;;;;14.60;99.90;;;;;;6211120;23;19907;-87
2023/03/12 12:27:31;;;;;;;;;;;14.60;99.90;;;;;;6184532;23;19931;-87
2023/03/12 12:30:03;;;;;;;;;;;14.50;99.90;;;;;;6211014;23;20332;-88
2023/03/12 12:32:54;;;;;;;;;;;14.40;99.90;;;;;;6211886;23;19908;-86
2023/03/12 12:35:26;;;;;;;;;;;14.50;99.90;;;;;;6211209;23;19907;-87
2023/03/12 12:38:01;;;;;;;;;;;14.40;99.90;;;;;;6210153;23;19900;-86
2023/03/12 12:40:36;;;;;;;;;;;14.50;99.90;;;;;;6184208;23;19946;-85
2023/03/12 12:43:04;;;;;;;;;;;14.50;99.90;;;;;;6210998;23;19914;-86
2023/03/12 12:45:30;;;;;;;;;;;14.60;99.90;;;;;;6210905;23;19899;-86
2023/03/12 12:48:16;;;;;;;;;;;15.30;99.90;;;;;;6210997;23;19903;-89
2023/03/12 12:50:42;;;;;;;;;;;14.90;99.90;;;;;;6210169;23;20232;-88
2023/03/12 12:53:11;;;;;;;;;;;15.10;99.90;;;;;;6209963;23;19995;-88
2023/03/12 12:55:39;;;;;;;;;;;15.20;99.90;;;;;;6211362;23;19989;-88
2023/03/12 12:58:10;;;;;;;;;;;15.30;99.90;;;;;;6211061;23;19982;-88
2023/03/12 13:00:48;;;;;;;;;;;15.30;99.90;;;;;;6211199;23;19930;-88
2023/03/12 13:03:16;;;;;;;;;;;15.10;99.90;;;;;;6211740;23;20344;-90
2023/03/12 13:05:49;;;;;;;;;;;14.90;99.90;;;;;;6210463;23;19935;-85
2023/03/12 13:08:31;;;;;;;;;;;14.80;99.90;;;;;;6184765;23;19906;-90
2023/03/12 13:10:56;;;;;;;;;;;14.60;99.90;;;;;;6211031;23;20241;-89
2023/03/12 13:13:22;;;;;;;;;;;14.50;99.90;;;;;;6211325;23;19911;-87
2023/03/12 13:15:48;;;;;;;;;;;14.50;99.90;;;;;;6211035;23;19900;-89
2023/03/12 13:18:22;;;;;;;;;;;14.40;99.90;;;;;;6211507;23;19903;-90
2023/03/12 13:20:51;;;;;;;;;;;14.50;99.90;;;;;;6211765;23;19991;-89
2023/03/12 13:23:19;;;;;;;;;;;14.60;99.90;;;;;;6218065;23;20391;-86
2023/03/12 13:25:51;;;;;;;;;;;14.70;99.90;;;;;;6223529;23;19900;-87
2023/03/12 13:28:29;;;;;;;;;;;14.80;99.90;;;;;;6228331;23;19927;-87
2023/03/12 13:30:55;;;;;;;;;;;14.70;99.90;;;;;;6225871;23;20395;-87
2023/03/12 13:33:39;;;;;;;;;;;14.70;99.90;;;;;;6213080;23;20347;-86
2023/03/12 13:36:10;;;;;;;;;;;14.70;99.90;;;;;;6213607;23;19907;-86
2023/03/12 13:38:38;;;;;;;;;;;14.70;99.90;;;;;;6213770;23;19911;-84
2023/03/12 13:41:04;;;;;;;;;;;14.80;99.90;;;;;;6187050;23;19953;-87
2023/03/12 13:43:32;;;;;;;;;;;14.70;99.90;;;;;;6212595;23;19900;-86
2023/03/12 13:46:04;;;;;;;;;;;14.70;99.90;;;;;;6212176;23;20348;-87
2023/03/12 13:48:32;;;;;;;;;;;14.70;99.90;;;;;;6185534;23;20314;-88
2023/03/12 13:51:00;;;;;;;;;;;14.50;99.90;;;;;;6212616;23;19919;-87
2023/03/12 13:53:35;;;;;;;;;;;14.40;99.90;;;;;;6212586;23;19986;-87
2023/03/12 13:56:04;;;;;;;;;;;14.40;99.90;;;;;;6212391;23;19906;-86
2023/03/12 13:58:29;;;;;;;;;;;14.30;99.90;;;;;;6212366;23;19904;-89
2023/03/12 14:01:04;;;;;;;;;;;14.20;99.90;;;;;;6185434;23;19908;-85
2023/03/12 14:03:32;;;;;;;;;;;14.10;99.90;;;;;;6186055;23;19903;-86
2023/03/12 14:06:04;;;;;;;;;;;14.10;99.90;;;;;;6212561;23;20238;-85
2023/03/12 14:08:30;;;;;;;;;;;14.00;99.90;;;;;;6212326;23;19899;-86
2023/03/12 14:11:02;;;;;;;;;;;14.00;99.90;;;;;;6211668;23;19904;-85
2023/03/12 14:13:50;;;;;;;;;;;14.10;99.90;;;;;;6212167;23;19982;-86
2023/03/12 14:16:34;;;;;;;;;;;14.00;99.90;;;;;;6211257;23;19900;-85
2023/03/12 14:19:02;;;;;;;;;;;14.00;99.90;;;;;;6185469;23;19961;-86
2023/03/12 14:21:31;;;;;;;;;;;14.10;99.90;;;;;;6212542;23;19899;-88
2023/03/12 14:23:59;;;;;;;;;;;13.90;99.90;;;;;;6211797;23;20328;-86
2023/03/12 14:26:26;;;;;;;;;;;13.90;99.90;;;;;;6211905;23;19907;-90
2023/03/12 14:28:57;;;;;;;;;;;13.90;99.90;;;;;;6212170;23;19900;-87